createdAt,value
2022-09-29T00:02:01.297Z,4.10
2022-09-29T00:04:03.896Z,3.60
2022-09-29T00:06:13.829Z,5.18
2022-09-29T00:08:17.598Z,4.00
2022-09-29T00:10:20.250Z,4.32
2022-09-29T00:12:22.827Z,4.22
2022-09-29T00:14:25.864Z,4.10
2022-09-29T00:16:29.415Z,4.30
2022-09-29T00:18:33.189Z,5.20
2022-09-29T00:20:35.906Z,4.63
2022-09-29T00:22:39.852Z,4.38
2022-09-29T00:24:42.420Z,4.38
2022-09-29T00:26:46.725Z,4.25
2022-09-29T00:28:52.657Z,3.95
2022-09-29T00:30:55.309Z,4.05
2022-09-29T00:32:58.199Z,4.43
2022-09-29T00:35:00.785Z,3.85
2022-09-29T00:37:03.666Z,4.00
2022-09-29T00:39:07.864Z,4.10
2022-09-29T00:41:17.863Z,3.97
2022-09-29T00:43:23.137Z,3.58
2022-09-29T00:45:25.886Z,3.83
2022-09-29T00:47:30.504Z,4.05
2022-09-29T00:49:40.015Z,4.18
2022-09-29T00:51:46.507Z,4.38
2022-09-29T00:53:49.733Z,4.10
2022-09-29T00:55:58.148Z,3.97
2022-09-29T00:58:04.755Z,3.83
2022-09-29T01:00:11.305Z,4.80
2022-09-29T01:02:14.376Z,3.72
2022-09-29T01:04:22.458Z,4.28
2022-09-29T01:06:29.248Z,4.43
2022-09-29T01:08:37.712Z,4.05
2022-09-29T01:10:44.207Z,4.60
2022-09-29T01:12:49.506Z,4.10
2022-09-29T01:14:54.566Z,4.35
2022-09-29T01:16:57.238Z,3.92
2022-09-29T01:19:01.819Z,3.88
2022-09-29T01:21:18.403Z,4.13
2022-09-29T01:23:52.583Z,3.83
2022-09-29T01:26:26.280Z,4.25
2022-09-29T01:29:04.922Z,4.13
2022-09-29T01:31:22.522Z,4.15
2022-09-29T01:33:35.705Z,4.78
2022-09-29T01:35:46.703Z,3.90
2022-09-29T01:38:09.142Z,4.30
2022-09-29T01:40:16.095Z,4.43
2022-09-29T01:42:21.387Z,4.10
2022-09-29T01:44:27.878Z,3.67
2022-09-29T01:46:37.468Z,4.20
2022-09-29T01:48:45.874Z,4.00
2022-09-29T01:50:52.028Z,4.18
2022-09-29T01:53:01.014Z,4.22
2022-09-29T01:55:06.998Z,4.25
2022-09-29T01:57:13.466Z,4.75
2022-09-29T01:59:21.818Z,4.47
2022-09-29T02:01:28.808Z,4.15
2022-09-29T02:03:38.900Z,4.28
2022-09-29T02:05:45.804Z,4.85
2022-09-29T02:07:50.107Z,4.50
2022-09-29T02:09:58.858Z,4.40
2022-09-29T02:12:04.815Z,4.78
2022-09-29T02:14:16.806Z,4.43
2022-09-29T02:16:24.538Z,4.75
2022-09-29T02:18:33.642Z,4.40
2022-09-29T02:20:37.847Z,4.45
2022-09-29T02:22:41.083Z,4.20
2022-09-29T02:24:44.211Z,4.47
2022-09-29T02:26:46.948Z,4.00
2022-09-29T02:28:49.783Z,5.03
2022-09-29T02:30:53.803Z,4.55
2022-09-29T02:32:56.367Z,4.30
2022-09-29T02:34:59.040Z,4.07
2022-09-29T02:37:14.563Z,4.38
2022-09-29T02:39:33.098Z,4.13
2022-09-29T02:41:46.644Z,3.95
2022-09-29T02:44:07.656Z,4.25
2022-09-29T02:46:31.511Z,3.80
2022-09-29T02:48:53.991Z,4.60
2022-09-29T02:51:10.064Z,4.13
2022-09-29T02:53:26.117Z,4.78
2022-09-29T02:55:36.465Z,4.38
2022-09-29T02:57:48.896Z,4.40
2022-09-29T03:00:05.551Z,4.32
2022-09-29T03:02:08.140Z,4.22
2022-09-29T03:04:10.788Z,3.85
2022-09-29T03:06:15.958Z,4.38
2022-09-29T03:08:19.890Z,4.00
2022-09-29T03:10:24.860Z,4.25
2022-09-29T03:12:29.958Z,5.05
2022-09-29T03:14:32.591Z,4.53
2022-09-29T03:16:37.062Z,4.82
2022-09-29T03:18:39.715Z,4.35
2022-09-29T03:20:42.357Z,5.13
2022-09-29T03:22:45.290Z,6.65
2022-09-29T03:24:49.178Z,5.20
2022-09-29T03:26:51.807Z,5.28
2022-09-29T03:28:55.147Z,5.90
2022-09-29T03:30:58.106Z,5.70
2022-09-29T03:33:00.677Z,5.28
2022-09-29T03:35:03.276Z,5.28
2022-09-29T03:37:06.028Z,4.28
2022-09-29T03:39:09.151Z,4.32
2022-09-29T03:41:13.095Z,4.60
2022-09-29T03:43:15.693Z,4.50
2022-09-29T03:45:18.290Z,4.38
2022-09-29T03:47:20.923Z,4.45
2022-09-29T03:49:23.504Z,5.10
2022-09-29T03:51:26.129Z,4.90
2022-09-29T03:53:28.743Z,5.13
2022-09-29T03:55:31.287Z,5.20
2022-09-29T03:57:35.348Z,5.90
2022-09-29T03:59:40.950Z,5.88
2022-09-29T04:01:46.015Z,6.85
2022-09-29T04:03:48.654Z,7.32
2022-09-29T04:05:51.671Z,7.70
2022-09-29T04:07:54.242Z,6.95
2022-09-29T04:09:56.850Z,7.22
2022-09-29T04:11:59.436Z,6.43
2022-09-29T04:14:03.391Z,6.15
2022-09-29T04:16:07.309Z,6.55
2022-09-29T04:18:09.925Z,5.70
2022-09-29T04:20:12.491Z,5.97
2022-09-29T04:22:17.595Z,5.53
2022-09-29T04:24:20.280Z,5.38
2022-09-29T04:26:22.848Z,5.50
2022-09-29T04:28:26.063Z,6.40
2022-09-29T04:30:30.010Z,5.95
2022-09-29T04:32:33.343Z,5.57
2022-09-29T04:34:36.125Z,5.32
2022-09-29T04:36:38.715Z,5.10
2022-09-29T04:38:41.358Z,5.55
2022-09-29T04:40:44.030Z,5.13
2022-09-29T04:42:46.630Z,5.03
2022-09-29T04:44:49.178Z,5.60
2022-09-29T04:46:53.103Z,5.63
2022-09-29T04:48:55.742Z,5.10
2022-09-29T04:50:58.337Z,5.53
2022-09-29T04:53:01.031Z,5.63
2022-09-29T04:55:04.203Z,5.38
2022-09-29T04:57:07.249Z,5.13
2022-09-29T04:59:10.775Z,5.38
2022-09-29T05:01:13.879Z,5.78
2022-09-29T05:03:17.959Z,5.43
2022-09-29T05:05:20.553Z,5.63
2022-09-29T05:07:23.171Z,5.53
2022-09-29T05:09:28.737Z,6.75
2022-09-29T05:11:33.859Z,6.75
2022-09-29T05:13:36.880Z,6.25
2022-09-29T05:15:39.465Z,6.63
2022-09-29T05:17:42.075Z,8.13
2022-09-29T05:19:45.995Z,6.63
2022-09-29T05:21:48.542Z,5.43
2022-09-29T05:23:51.114Z,5.25
2022-09-29T05:25:53.691Z,5.50
2022-09-29T05:27:56.512Z,4.50
2022-09-29T05:29:59.103Z,4.90
2022-09-29T05:32:02.058Z,5.20
2022-09-29T05:34:04.679Z,3.83
2022-09-29T05:36:10.241Z,4.35
2022-09-29T05:38:13.145Z,4.47
2022-09-29T05:40:15.945Z,5.05
2022-09-29T05:42:18.538Z,4.60
2022-09-29T05:44:21.100Z,4.32
2022-09-29T05:46:24.395Z,4.43
2022-09-29T05:48:26.941Z,4.97
2022-09-29T05:50:29.522Z,5.13
2022-09-29T05:52:33.451Z,4.88
2022-09-29T05:54:36.148Z,4.70
2022-09-29T05:56:41.885Z,4.82
2022-09-29T05:58:47.870Z,4.88
2022-09-29T06:00:51.082Z,4.78
2022-09-29T06:02:53.719Z,4.80
2022-09-29T06:04:56.297Z,5.43
2022-09-29T06:06:58.864Z,4.93
2022-09-29T06:09:04.289Z,5.13
2022-09-29T06:11:08.584Z,4.65
2022-09-29T06:13:11.192Z,4.82
2022-09-29T06:15:14.320Z,4.00
2022-09-29T06:17:16.923Z,4.60
2022-09-29T06:19:19.627Z,4.88
2022-09-29T06:21:24.042Z,5.68
2022-09-29T06:23:26.612Z,4.55
2022-09-29T06:25:30.540Z,4.40
2022-09-29T06:27:33.157Z,4.30
2022-09-29T06:29:35.704Z,3.75
2022-09-29T06:31:39.329Z,3.90
2022-09-29T06:33:42.706Z,4.57
2022-09-29T06:36:05.238Z,4.07
2022-09-29T06:38:07.905Z,4.65
2022-09-29T06:40:11.841Z,3.85
2022-09-29T06:42:16.221Z,4.72
2022-09-29T06:44:19.190Z,4.20
2022-09-29T06:46:25.119Z,4.72
2022-09-29T06:48:30.401Z,4.65
2022-09-29T06:50:33.002Z,4.55
2022-09-29T06:52:35.569Z,5.30
2022-09-29T06:54:38.383Z,4.90
2022-09-29T06:56:41.554Z,5.10
2022-09-29T06:58:45.877Z,5.25
2022-09-29T07:00:50.675Z,4.93
2022-09-29T07:02:54.409Z,5.57
2022-09-29T07:04:56.995Z,5.20
2022-09-29T07:06:59.703Z,5.15
2022-09-29T07:09:02.296Z,5.20
2022-09-29T07:11:04.938Z,5.63
2022-09-29T07:13:08.937Z,5.60
2022-09-29T07:15:12.942Z,6.00
2022-09-29T07:17:15.526Z,5.85
2022-09-29T07:19:19.856Z,5.43
2022-09-29T07:21:22.634Z,5.45
2022-09-29T07:23:25.656Z,6.55
2022-09-29T07:25:50.615Z,6.50
2022-09-29T07:27:51.345Z,7.07
2022-09-29T07:30:02.748Z,7.55
2022-09-29T07:32:24.777Z,7.43
2022-09-29T07:34:29.178Z,7.35
2022-09-29T07:36:31.989Z,7.97
2022-09-29T07:38:34.667Z,7.07
2022-09-29T07:40:37.949Z,6.10
2022-09-29T07:42:40.606Z,6.90
2022-09-29T07:44:43.201Z,5.95
2022-09-29T07:46:45.741Z,5.43
2022-09-29T07:48:49.677Z,5.57
2022-09-29T07:50:53.491Z,5.90
2022-09-29T07:52:56.504Z,5.47
2022-09-29T07:54:59.138Z,5.22
2022-09-29T07:57:03.863Z,5.03
2022-09-29T07:59:06.416Z,5.25
2022-09-29T08:01:12.771Z,5.88
2022-09-29T08:03:18.351Z,5.90
2022-09-29T08:05:22.512Z,6.30
2022-09-29T08:07:25.107Z,6.50
2022-09-29T08:09:38.870Z,6.10
2022-09-29T08:11:44.590Z,5.97
2022-09-29T08:13:47.490Z,5.82
2022-09-29T08:15:50.066Z,6.88
2022-09-29T08:17:53.489Z,6.28
2022-09-29T08:19:56.038Z,6.53
2022-09-29T08:21:59.961Z,6.63
2022-09-29T08:24:04.579Z,5.68
2022-09-29T08:26:08.794Z,5.65
2022-09-29T08:28:13.477Z,5.35
2022-09-29T08:30:20.977Z,4.90
2022-09-29T08:32:23.563Z,4.93
2022-09-29T08:34:26.257Z,4.68
2022-09-29T08:36:29.378Z,5.15
2022-09-29T08:38:35.043Z,4.45
2022-09-29T08:40:37.763Z,4.53
2022-09-29T08:42:49.648Z,5.70
2022-09-29T08:47:21.236Z,5.85
2022-09-29T08:49:33.204Z,5.68
2022-09-29T08:51:42.936Z,5.85
2022-09-29T08:54:01.217Z,6.00
2022-09-29T08:56:07.943Z,5.40
2022-09-29T08:58:13.769Z,5.65
2022-09-29T09:00:19.471Z,6.07
2022-09-29T09:02:44.352Z,6.47
2022-09-29T09:05:02.641Z,6.65
2022-09-29T09:07:16.033Z,5.85
2022-09-29T09:09:41.766Z,4.90
2022-09-29T09:12:01.665Z,5.10
2022-09-29T09:14:16.560Z,5.15
2022-09-29T09:16:31.555Z,5.95
2022-09-29T09:18:52.989Z,5.60
2022-09-29T09:21:03.950Z,5.20
2022-09-29T09:23:16.169Z,5.20
2022-09-29T09:25:28.776Z,5.60
2022-09-29T09:27:37.456Z,5.47
2022-09-29T09:29:44.656Z,5.63
2022-09-29T09:31:53.340Z,4.78
2022-09-29T09:34:06.321Z,5.35
2022-09-29T09:36:21.320Z,4.78
2022-09-29T09:38:44.035Z,4.50
2022-09-29T09:40:51.750Z,4.80
2022-09-29T09:43:04.254Z,4.57
2022-09-29T09:45:14.962Z,4.60
2022-09-29T09:47:25.915Z,4.43
2022-09-29T09:49:33.623Z,5.20
2022-09-29T09:51:47.485Z,5.53
2022-09-29T09:53:51.590Z,4.07
2022-09-29T09:56:04.841Z,3.90
2022-09-29T09:58:26.225Z,4.40
2022-09-29T10:00:34.119Z,3.20
2022-09-29T10:02:41.448Z,2.95
2022-09-29T10:06:07.924Z,3.63
2022-09-29T10:08:16.548Z,4.30
2022-09-29T10:10:22.012Z,4.10
2022-09-29T10:12:26.192Z,4.15
2022-09-29T10:14:29.502Z,4.32
2022-09-29T10:16:41.472Z,3.47
2022-09-29T10:18:46.797Z,3.25
2022-09-29T10:20:49.817Z,3.45
2022-09-29T10:22:53.720Z,2.88
2022-09-29T10:25:08.931Z,3.10
2022-09-29T10:27:12.043Z,2.08
2022-09-29T10:29:25.871Z,2.80
2022-09-29T10:31:30.221Z,3.10
2022-09-29T10:33:32.908Z,2.97
2022-09-29T10:35:39.059Z,2.72
2022-09-29T10:37:44.262Z,2.85
2022-09-29T10:39:49.137Z,2.70
2022-09-29T10:41:54.521Z,2.85
2022-09-29T10:43:57.099Z,2.60
2022-09-29T10:45:59.785Z,2.17
2022-09-29T10:48:11.218Z,2.15
2022-09-29T10:50:17.326Z,2.15
2022-09-29T10:52:25.678Z,2.00
2022-09-29T10:54:30.440Z,1.80
2022-09-29T10:56:34.757Z,2.03
2022-09-29T10:58:53.305Z,2.10
2022-09-29T11:01:09.193Z,2.00
2022-09-29T11:03:20.622Z,2.20
2022-09-29T11:05:24.643Z,2.10
2022-09-29T11:07:28.238Z,2.40
2022-09-29T11:09:38.509Z,2.38
2022-09-29T11:12:00.076Z,2.47
2022-09-29T11:14:04.665Z,2.30
2022-09-29T11:16:16.442Z,2.00
2022-09-29T11:20:26.533Z,2.17
2022-09-29T11:22:49.267Z,2.17
2022-09-29T11:25:09.733Z,2.42
2022-09-29T11:27:24.826Z,2.22
2022-09-29T11:29:39.812Z,1.90
2022-09-29T11:32:00.359Z,2.10
2022-09-29T11:34:19.421Z,2.30
2022-09-29T11:36:32.198Z,2.13
2022-09-29T11:38:47.987Z,2.15
2022-09-29T11:41:03.477Z,2.22
2022-09-29T11:43:25.647Z,2.30
2022-09-29T11:45:39.623Z,3.15
2022-09-29T11:48:01.792Z,2.58
2022-09-29T11:50:21.100Z,2.40
2022-09-29T11:52:47.870Z,2.13
2022-09-29T11:55:07.952Z,2.47
2022-09-29T11:57:19.184Z,2.40
2022-09-29T11:59:36.888Z,2.58
2022-09-29T12:01:57.421Z,2.38
2022-09-29T12:04:12.327Z,2.38
2022-09-29T12:06:36.270Z,2.45
2022-09-29T12:08:57.893Z,2.05
2022-09-29T12:11:37.336Z,2.00
2022-09-29T12:13:38.039Z,2.20
2022-09-29T12:15:51.439Z,2.40
2022-09-29T12:17:58.105Z,1.63
2022-09-29T12:20:07.069Z,1.95
2022-09-29T12:22:13.346Z,2.15
2022-09-29T12:24:20.324Z,2.20
2022-09-29T12:26:26.004Z,1.83
2022-09-29T12:28:33.549Z,2.00
2022-09-29T12:30:47.754Z,1.92
2022-09-29T12:32:57.453Z,1.48
2022-09-29T12:35:07.029Z,1.67
2022-09-29T12:37:18.472Z,1.58
2022-09-29T12:39:44.941Z,2.00
2022-09-29T12:41:54.251Z,1.77
2022-09-29T12:44:01.587Z,2.42
2022-09-29T12:46:11.481Z,2.03
2022-09-29T12:48:24.904Z,1.92
2022-09-29T12:50:31.593Z,1.70
2022-09-29T12:52:42.805Z,1.50
2022-09-29T12:54:51.352Z,1.90
2022-09-29T12:56:58.466Z,1.70
2022-09-29T12:59:06.544Z,2.20
2022-09-29T13:01:27.839Z,1.88
2022-09-29T13:03:59.924Z,2.65
2022-09-29T13:06:36.131Z,1.58
2022-09-29T13:09:04.572Z,2.25
2022-09-29T13:11:27.341Z,2.03
2022-09-29T13:13:52.574Z,2.05
2022-09-29T13:16:12.279Z,1.88
2022-09-29T13:18:39.460Z,1.88
2022-09-29T13:20:52.051Z,1.55
2022-09-29T13:23:24.886Z,1.70
2022-09-29T13:25:38.400Z,1.65
2022-09-29T13:27:44.458Z,1.65
2022-09-29T13:29:50.324Z,2.38
2022-09-29T13:31:55.642Z,1.55
2022-09-29T13:34:02.494Z,1.40
2022-09-29T13:36:05.443Z,1.33
2022-09-29T13:38:14.575Z,1.30
2022-09-29T13:40:21.889Z,1.58
2022-09-29T13:42:42.733Z,1.48
2022-09-29T13:45:16.264Z,1.52
2022-09-29T13:47:33.674Z,1.50
2022-09-29T13:49:37.632Z,1.58
2022-09-29T13:51:46.778Z,1.80
2022-09-29T13:54:36.391Z,1.88
2022-09-29T13:56:39.032Z,1.40
2022-09-29T13:59:00.634Z,1.42
2022-09-29T14:01:06.459Z,1.70
2022-09-29T14:03:30.207Z,1.65
2022-09-29T14:05:45.409Z,1.40
2022-09-29T14:07:51.426Z,1.58
2022-09-29T14:09:54.305Z,1.80
2022-09-29T14:12:02.480Z,1.55
2022-09-29T14:14:09.523Z,1.90
2022-09-29T14:16:31.912Z,1.92
2022-09-29T14:18:41.557Z,1.58
2022-09-29T14:21:00.113Z,1.90
2022-09-29T14:23:05.288Z,1.67
2022-09-29T14:25:28.695Z,1.92
2022-09-29T14:27:36.005Z,1.60
2022-09-29T14:29:43.958Z,1.50
2022-09-29T14:31:51.453Z,1.67
2022-09-29T14:33:54.380Z,1.40
2022-09-29T14:36:06.640Z,1.50
2022-09-29T14:38:15.174Z,1.98
2022-09-29T14:40:30.854Z,1.70
2022-09-29T14:42:33.657Z,1.40
2022-09-29T14:44:52.796Z,1.80
2022-09-29T14:47:41.173Z,1.55
2022-09-29T14:50:39.127Z,1.70
2022-09-29T14:52:56.310Z,1.40
2022-09-29T14:57:33.133Z,1.48
2022-09-29T14:59:51.284Z,1.75
2022-09-29T15:02:17.695Z,1.70
2022-09-29T15:04:20.675Z,1.13
2022-09-29T15:06:25.365Z,1.20
2022-09-29T15:08:31.864Z,1.65
2022-09-29T15:10:42.618Z,1.30
2022-09-29T15:12:49.805Z,1.88
2022-09-29T15:14:52.432Z,1.33
2022-09-29T15:17:07.071Z,1.20
2022-09-29T15:19:32.706Z,1.17
2022-09-29T15:21:43.433Z,1.80
2022-09-29T15:24:15.749Z,1.45
2022-09-29T15:26:19.605Z,1.85
2022-09-29T15:28:29.127Z,1.25
2022-09-29T15:30:33.137Z,1.30
2022-09-29T15:32:35.752Z,1.40
2022-09-29T15:34:39.589Z,1.20
2022-09-29T15:36:43.450Z,1.13
2022-09-29T15:38:46.132Z,1.58
2022-09-29T15:40:55.723Z,1.17
2022-09-29T15:42:58.403Z,1.40
2022-09-29T15:45:03.310Z,1.10
2022-09-29T15:47:06.084Z,1.40
2022-09-29T15:49:13.861Z,1.55
2022-09-29T15:51:18.843Z,1.40
2022-09-29T15:53:22.018Z,1.23
2022-09-29T15:55:26.101Z,1.45
2022-09-29T15:57:44.684Z,1.58
2022-09-29T15:59:53.225Z,1.88
2022-09-29T16:02:05.744Z,1.60
2022-09-29T16:04:09.877Z,1.77
2022-09-29T16:06:22.266Z,2.22
2022-09-29T16:08:28.805Z,1.38
2022-09-29T16:10:34.540Z,1.90
2022-09-29T16:12:41.253Z,1.58
2022-09-29T16:14:45.871Z,1.70
2022-09-29T16:16:56.130Z,1.30
2022-09-29T16:19:08.861Z,1.58
2022-09-29T16:21:13.906Z,1.52
2022-09-29T16:23:21.371Z,1.90
2022-09-29T16:25:27.203Z,1.60
2022-09-29T16:27:57.235Z,1.45
2022-09-29T16:30:18.396Z,1.50
2022-09-29T16:32:42.625Z,1.67
2022-09-29T16:34:45.706Z,1.50
2022-09-29T16:36:49.967Z,1.40
2022-09-29T16:38:53.791Z,1.25
2022-09-29T16:40:57.456Z,1.67
2022-09-29T16:43:01.667Z,1.67
2022-09-29T16:45:05.026Z,1.58
2022-09-29T16:47:15.615Z,1.88
2022-09-29T16:49:21.967Z,2.05
2022-09-29T16:51:38.668Z,1.65
2022-09-29T16:53:41.896Z,2.40
2022-09-29T16:55:57.111Z,2.13
2022-09-29T16:58:03.512Z,2.40
2022-09-29T17:00:12.609Z,2.35
2022-09-29T17:02:15.414Z,2.63
2022-09-29T17:04:18.270Z,2.35
2022-09-29T17:06:21.033Z,2.63
2022-09-29T17:08:25.643Z,2.30
2022-09-29T17:10:28.959Z,2.20
2022-09-29T17:12:32.096Z,2.10
2022-09-29T17:14:36.039Z,2.58
2022-09-29T17:16:40.758Z,2.53
2022-09-29T17:18:43.336Z,3.17
2022-09-29T17:20:46.174Z,3.00
2022-09-29T17:22:48.958Z,2.92
2022-09-29T17:24:51.632Z,3.17
2022-09-29T17:27:11.968Z,3.25
2022-09-29T17:29:14.650Z,3.55
2022-09-29T17:31:19.037Z,3.53
2022-09-29T17:33:21.682Z,3.17
2022-09-29T17:35:27.289Z,3.92
2022-09-29T17:37:32.936Z,4.18
2022-09-29T17:39:35.551Z,3.40
2022-09-29T17:41:45.108Z,3.50
2022-09-29T17:43:48.515Z,2.95
2022-09-29T17:45:51.497Z,2.90
2022-09-29T17:47:55.419Z,2.92
2022-09-29T17:49:57.990Z,2.83
2022-09-29T17:52:00.615Z,3.50
2022-09-29T17:54:03.287Z,2.97
2022-09-29T17:56:07.015Z,3.50
2022-09-29T17:58:12.137Z,3.33
2022-09-29T18:00:17.975Z,5.05
2022-09-29T18:02:20.596Z,5.05
2022-09-29T18:04:25.283Z,5.03
2022-09-29T18:06:28.385Z,5.68
2022-09-29T18:08:30.954Z,5.15
2022-09-29T18:10:38.478Z,4.88
2022-09-29T18:12:41.090Z,4.53
2022-09-29T18:14:43.750Z,5.00
2022-09-29T18:16:46.339Z,4.40
2022-09-29T18:18:49.407Z,4.07
2022-09-29T18:20:53.370Z,3.92
2022-09-29T18:22:58.992Z,4.65
2022-09-29T18:25:01.584Z,4.60
2022-09-29T18:27:04.170Z,4.88
2022-09-29T18:29:15.533Z,5.80
2022-09-29T18:31:23.809Z,5.53
2022-09-29T18:33:28.295Z,6.15
2022-09-29T18:36:46.300Z,5.65
2022-09-29T18:38:49.224Z,4.57
2022-09-29T18:40:54.009Z,4.03
2022-09-29T18:42:57.808Z,4.18
2022-09-29T18:45:00.355Z,4.38
2022-09-29T18:47:02.939Z,4.70
2022-09-29T18:49:05.575Z,4.35
2022-09-29T18:51:08.298Z,5.43
2022-09-29T18:53:13.620Z,4.82
2022-09-29T18:55:17.705Z,4.68
2022-09-29T18:57:21.924Z,4.95
2022-09-29T18:59:24.576Z,4.38
2022-09-29T19:01:29.814Z,4.47
2022-09-29T19:03:33.896Z,4.97
2022-09-29T19:05:39.847Z,4.22
2022-09-29T19:07:42.513Z,6.47
2022-09-29T19:09:46.605Z,6.60
2022-09-29T19:11:49.828Z,6.50
2022-09-29T19:13:55.111Z,6.10
2022-09-29T19:15:58.659Z,5.95
2022-09-29T19:18:01.360Z,5.82
2022-09-29T19:20:05.516Z,14.13
2022-09-29T19:22:12.343Z,7.30
2022-09-29T19:24:16.289Z,15.20
2022-09-29T19:26:22.301Z,17.50
2022-09-29T19:28:27.460Z,15.20
2022-09-29T19:30:30.879Z,12.15
2022-09-29T19:32:33.809Z,10.20
2022-09-29T19:34:36.483Z,6.60
2022-09-29T19:36:39.185Z,6.63
2022-09-29T19:38:41.868Z,5.80
2022-09-29T19:40:46.818Z,5.45
2022-09-29T19:42:51.339Z,4.95
2022-09-29T19:44:53.979Z,4.70
2022-09-29T19:46:56.722Z,5.03
2022-09-29T19:48:59.290Z,4.47
2022-09-29T19:51:19.810Z,5.25
2022-09-29T19:53:22.606Z,5.10
2022-09-29T19:55:25.292Z,4.57
2022-09-29T19:57:27.902Z,4.28
2022-09-29T19:59:33.995Z,4.70
2022-09-29T20:01:36.575Z,4.40
2022-09-29T20:03:39.317Z,4.78
2022-09-29T20:05:42.227Z,4.10
2022-09-29T20:07:45.395Z,4.00
2022-09-29T20:09:48.152Z,4.10
2022-09-29T20:11:51.271Z,3.70
2022-09-29T20:13:53.889Z,3.72
2022-09-29T20:15:57.871Z,3.60
2022-09-29T20:18:00.569Z,3.45
2022-09-29T20:20:04.084Z,3.53
2022-09-29T20:22:09.469Z,3.67
2022-09-29T20:24:14.225Z,4.10
2022-09-29T20:26:17.215Z,4.85
2022-09-29T20:28:20.026Z,4.60
2022-09-29T20:30:22.632Z,4.65
2022-09-29T20:32:28.476Z,4.43
2022-09-29T20:34:32.450Z,4.40
2022-09-29T20:36:36.100Z,4.65
2022-09-29T20:38:40.852Z,4.35
2022-09-29T20:40:43.487Z,4.25
2022-09-29T20:42:48.609Z,4.57
2022-09-29T20:44:55.293Z,4.53
2022-09-29T20:46:58.482Z,5.18
2022-09-29T20:49:03.769Z,5.00
2022-09-29T20:51:07.873Z,5.43
2022-09-29T20:53:10.436Z,5.03
2022-09-29T20:55:13.037Z,5.95
2022-09-29T20:57:16.538Z,5.57
2022-09-29T20:59:21.356Z,5.25
2022-09-29T21:01:28.021Z,5.65
2022-09-29T21:03:30.690Z,5.55
2022-09-29T21:05:34.611Z,5.57
2022-09-29T21:07:38.101Z,5.38
2022-09-29T21:09:40.832Z,5.20
2022-09-29T21:11:44.468Z,4.78
2022-09-29T21:13:47.726Z,4.60
2022-09-29T21:15:50.428Z,4.65
2022-09-29T21:17:53.071Z,5.07
2022-09-29T21:19:57.065Z,5.28
2022-09-29T21:22:00.969Z,4.93
2022-09-29T21:24:03.718Z,4.30
2022-09-29T21:26:08.879Z,4.85
2022-09-29T21:28:11.452Z,4.65
2022-09-29T21:30:14.075Z,5.80
2022-09-29T21:32:17.482Z,5.07
2022-09-29T21:34:21.017Z,4.30
2022-09-29T21:36:25.011Z,4.75
2022-09-29T21:38:31.362Z,4.90
2022-09-29T21:40:34.283Z,4.50
2022-09-29T21:42:36.844Z,4.38
2022-09-29T21:44:40.064Z,4.18
2022-09-29T21:46:43.268Z,4.40
2022-09-29T21:48:46.872Z,4.60
2022-09-29T21:50:49.446Z,5.47
2022-09-29T21:52:52.649Z,5.22
2022-09-29T21:54:56.599Z,4.72
2022-09-29T21:56:59.134Z,5.15
2022-09-29T21:59:01.822Z,4.68
2022-09-29T22:01:09.093Z,4.60
2022-09-29T22:03:15.590Z,5.20
2022-09-29T22:05:18.140Z,5.30
2022-09-29T22:07:20.734Z,5.57
2022-09-29T22:09:23.426Z,5.43
2022-09-29T22:11:29.755Z,5.85
2022-09-29T22:13:32.747Z,6.07
2022-09-29T22:15:35.291Z,6.40
2022-09-29T22:17:37.927Z,5.80
2022-09-29T22:19:43.140Z,5.97
2022-09-29T22:21:45.715Z,5.47
2022-09-29T22:23:48.275Z,5.28
2022-09-29T22:25:50.923Z,6.00
2022-09-29T22:27:54.951Z,5.28
2022-09-29T22:29:57.541Z,5.97
2022-09-29T22:32:00.159Z,5.20
2022-09-29T22:34:05.219Z,5.72
2022-09-29T22:36:08.659Z,5.65
2022-09-29T22:38:12.181Z,5.05
2022-09-29T22:40:15.459Z,5.38
2022-09-29T22:42:18.078Z,5.80
2022-09-29T22:44:22.016Z,6.88
2022-09-29T22:46:25.908Z,8.07
2022-09-29T22:48:28.575Z,14.20
2022-09-29T22:50:32.417Z,14.40
2022-09-29T22:52:35.033Z,7.50
2022-09-29T22:54:37.651Z,8.45
2022-09-29T22:56:40.542Z,7.55
2022-09-29T22:58:43.366Z,8.20
2022-09-29T23:00:47.328Z,7.82
2022-09-29T23:02:49.903Z,9.35
2022-09-29T23:04:52.465Z,8.68
2022-09-29T23:06:55.037Z,7.25
2022-09-29T23:08:57.645Z,6.57
2022-09-29T23:11:01.658Z,6.72
2022-09-29T23:13:06.644Z,6.53
2022-09-29T23:15:10.458Z,6.55
2022-09-29T23:17:14.382Z,6.60
2022-09-29T23:19:17.283Z,6.40
2022-09-29T23:21:20.077Z,6.40
2022-09-29T23:23:22.724Z,6.15
2022-09-29T23:25:25.317Z,6.10
2022-09-29T23:27:31.699Z,5.90
2022-09-29T23:29:34.269Z,6.13
2022-09-29T23:31:36.935Z,6.35
2022-09-29T23:33:40.907Z,6.50
2022-09-29T23:35:43.612Z,6.50
2022-09-29T23:38:04.109Z,6.15
2022-09-29T23:40:07.524Z,10.00
2022-09-29T23:42:10.189Z,13.05
2022-09-29T23:44:15.355Z,9.88
2022-09-29T23:46:18.012Z,8.88
2022-09-29T23:48:22.240Z,7.68
2022-09-29T23:50:26.384Z,9.18
2022-09-29T23:52:29.095Z,8.57
2022-09-29T23:54:31.920Z,9.00
2022-09-29T23:56:34.529Z,8.93
2022-09-29T23:58:37.100Z,8.70
